Kezdőlap
METAR-TAF:

METAR-TAF

Repülőterek :

Southwest Minnesota Regional Airport (Marshall/Ryan Field)

Marshall, Minnesota, Amerikai Egyesült Államok

földrajzi szélesség: 44-27N, földrajzi hosszúság: 095-49W, magasság: 359 m

Jelenlegi meteorológiai megfigyelések

A jelentés 1 órával és 1 perccel ezelõtt készült, 12:56 UTC
Déli szél 7 kt
Hőmérséklet 26°C
Páratartalom 89%
Légköri nyomás 1015 hPa
Látótávolság: 16.1 km
Derült ég

METAR: KMML 281256Z AUTO 17007KT 10SM CLR 26/24 A2997 RMK AO2 SLP141 T02610244

Idő: 08:57 (13:57 UTC)


TAF: hiányzik

Meteorológiai megfigyelések és előrejelzések több, mint 4000 repülőtéren (METAR és TAF jelentéseket).

A térképen piros és sárga pontok jelzik az elérhető meteorológiai állomásokat.

Mozgassa az egeret a pont fölött, hogy megjelenjen az állomás neve.

Azután kattintson az időjárási megfigyelések és előrejelzések megtekintéséhez.

A térkép megváltoztatása: kattintson a fekete keresztel jelölt zöld gombra ráközelítéshez, a vonallal jelölt zöld gombra távolításhoz, vagy a zöld nyilakra a szomszédos térképek eléréséhez.


METAR-TAF: